Time;durP1;ratioP1;P1;durP2;ratioP2;P2;SDS_P1;SDS_P2;PMS_P1;PMS_P2;Temp;Humidity;BMP_temperature;BMP_pressure;BME280_temperature;BME280_humidity;BME280_pressure;Samples;Min_cycle;Max_cycle;Signal;HPM_P1;HPM_P2
2023/09/18 00:00:28;;;;;;;11.67;9.17;;;;;;;;;;4996096;28;20188;-69
2023/09/18 00:02:54;;;;;;;11.07;9.73;;;;;;;;;;4995635;28;20184;-69
2023/09/18 00:05:20;;;;;;;11.73;8.93;;;;;;;;;;5013496;28;20285;-69
2023/09/18 00:07:46;;;;;;;9.90;8.97;;;;;;;;;;4995587;28;20555;-69
2023/09/18 00:10:12;;;;;;;12.50;9.70;;;;;;;;;;5013292;28;20545;-69
2023/09/18 00:12:38;;;;;;;11.07;9.57;;;;;;;;;;5013522;28;20255;-68
2023/09/18 00:15:05;;;;;;;11.53;9.33;;;;;;;;;;5013454;28;20176;-69
2023/09/18 00:17:31;;;;;;;13.23;10.13;;;;;;;;;;5013172;28;20223;-69
2023/09/18 00:19:57;;;;;;;15.77;9.80;;;;;;;;;;5013113;28;20572;-69
2023/09/18 00:22:24;;;;;;;11.60;9.53;;;;;;;;;;4995308;28;20196;-69
2023/09/18 00:24:50;;;;;;;10.73;8.60;;;;;;;;;;4995446;28;20274;-69
2023/09/18 00:27:16;;;;;;;11.47;9.10;;;;;;;;;;5012962;28;20291;-71
2023/09/18 00:29:42;;;;;;;15.03;10.23;;;;;;;;;;5013514;28;20612;-67
2023/09/18 00:32:08;;;;;;;13.70;9.93;;;;;;;;;;5015006;28;20202;-68
2023/09/18 00:34:34;;;;;;;13.27;10.17;;;;;;;;;;5013191;28;20210;-69
2023/09/18 00:37:00;;;;;;;16.47;9.40;;;;;;;;;;5012941;28;20257;-68
2023/09/18 00:39:29;;;;;;;12.77;9.13;;;;;;;;;;4995408;28;20183;-68
2023/09/18 00:41:55;;;;;;;12.97;9.70;;;;;;;;;;5014200;28;20179;-68
2023/09/18 00:44:21;;;;;;;15.27;10.37;;;;;;;;;;5013350;28;20254;-70
2023/09/18 00:46:48;;;;;;;10.40;9.40;;;;;;;;;;5013306;28;20215;-68
2023/09/18 00:49:14;;;;;;;15.73;9.90;;;;;;;;;;5013966;28;20622;-67
2023/09/18 00:51:41;;;;;;;13.13;9.40;;;;;;;;;;5013403;28;20217;-69
2023/09/18 00:54:07;;;;;;;14.40;9.80;;;;;;;;;;5012979;28;20179;-68
2023/09/18 00:56:33;;;;;;;22.27;9.50;;;;;;;;;;5012751;28;20206;-69
2023/09/18 00:59:01;;;;;;;13.73;10.17;;;;;;;;;;4995365;28;20233;-69
2023/09/18 01:01:27;;;;;;;11.83;10.30;;;;;;;;;;5012670;28;20180;-68
2023/09/18 01:03:53;;;;;;;14.07;9.30;;;;;;;;;;4995099;28;20227;-69
2023/09/18 01:06:20;;;;;;;15.10;10.43;;;;;;;;;;4995068;28;20235;-69
2023/09/18 01:08:49;;;;;;;12.33;10.10;;;;;;;;;;5013420;28;20184;-68
2023/09/18 01:11:25;;;;;;;11.53;10.27;;;;;;;;;;4995551;28;20184;-68
2023/09/18 01:14:07;;;;;;;16.53;10.47;;;;;;;;;;5012997;28;20190;-69
2023/09/18 01:16:41;;;;;;;12.93;9.80;;;;;;;;;;5012398;28;20211;-68
2023/09/18 01:19:06;;;;;;;14.37;9.87;;;;;;;;;;5014010;28;20179;-68
2023/09/18 01:21:32;;;;;;;13.47;9.80;;;;;;;;;;4996349;28;20542;-68
2023/09/18 01:23:58;;;;;;;13.57;9.93;;;;;;;;;;5012508;28;20564;-68
2023/09/18 01:26:24;;;;;;;16.27;10.20;;;;;;;;;;5012586;28;20273;-69
2023/09/18 01:28:50;;;;;;;13.30;10.17;;;;;;;;;;5012366;28;20191;-68
2023/09/18 01:31:17;;;;;;;15.13;11.03;;;;;;;;;;4994821;28;20179;-69
2023/09/18 01:33:47;;;;;;;14.63;10.93;;;;;;;;;;4997413;28;20203;-69
2023/09/18 01:36:14;;;;;;;14.90;10.03;;;;;;;;;;5015896;28;20176;-70
2023/09/18 01:38:40;;;;;;;14.30;10.17;;;;;;;;;;4998030;28;20204;-69
2023/09/18 01:41:06;;;;;;;19.57;10.57;;;;;;;;;;4998185;28;20219;-69
2023/09/18 01:43:32;;;;;;;17.57;9.83;;;;;;;;;;5015750;28;20204;-69
2023/09/18 01:45:58;;;;;;;17.93;10.50;;;;;;;;;;5015616;28;20207;-69
2023/09/18 01:48:24;;;;;;;11.93;10.00;;;;;;;;;;5015566;28;20202;-69
2023/09/18 01:50:50;;;;;;;14.40;10.40;;;;;;;;;;5015779;28;20179;-69
2023/09/18 01:53:16;;;;;;;15.17;10.47;;;;;;;;;;4997872;28;20538;-70
2023/09/18 01:55:42;;;;;;;13.93;9.77;;;;;;;;;;5016025;28;20651;-69
2023/09/18 01:58:09;;;;;;;15.03;10.67;;;;;;;;;;5016010;28;20590;-68
2023/09/18 02:00:35;;;;;;;14.77;10.20;;;;;;;;;;5015546;28;20203;-69
2023/09/18 02:03:01;;;;;;;19.40;10.30;;;;;;;;;;5015840;28;20191;-68
2023/09/18 02:05:27;;;;;;;16.33;10.73;;;;;;;;;;5015601;28;20215;-68
2023/09/18 02:07:53;;;;;;;14.97;10.50;;;;;;;;;;5015786;28;20242;-69
2023/09/18 02:10:19;;;;;;;13.43;9.60;;;;;;;;;;4997838;28;20688;-68
2023/09/18 02:12:45;;;;;;;14.57;10.53;;;;;;;;;;5015684;28;20214;-68
2023/09/18 02:15:11;;;;;;;14.10;10.47;;;;;;;;;;4997661;28;20184;-68
2023/09/18 02:17:37;;;;;;;22.23;10.50;;;;;;;;;;5015248;28;20219;-69
2023/09/18 02:20:10;;;;;;;16.63;9.97;;;;;;;;;;5015452;28;20230;-68
2023/09/18 02:22:36;;;;;;;13.87;9.87;;;;;;;;;;5015656;28;20252;-69
2023/09/18 02:25:02;;;;;;;16.60;9.73;;;;;;;;;;5015136;28;20211;-69
2023/09/18 02:27:28;;;;;;;13.93;9.40;;;;;;;;;;5015438;28;20196;-69
2023/09/18 02:29:54;;;;;;;15.00;9.53;;;;;;;;;;5014958;28;20215;-69
2023/09/18 02:32:20;;;;;;;20.67;9.67;;;;;;;;;;5014925;28;20179;-69
2023/09/18 02:34:46;;;;;;;12.67;9.30;;;;;;;;;;4997287;28;20187;-69
2023/09/18 02:37:12;;;;;;;13.17;8.57;;;;;;;;;;4997167;28;20237;-70
2023/09/18 02:39:38;;;;;;;12.63;9.60;;;;;;;;;;5015100;28;20179;-69
2023/09/18 02:42:04;;;;;;;13.10;9.10;;;;;;;;;;5015131;28;20187;-69
2023/09/18 02:44:29;;;;;;;12.93;8.83;;;;;;;;;;4996200;28;20184;-69
2023/09/18 02:46:56;;;;;;;16.30;9.47;;;;;;;;;;5015014;28;20219;-69
2023/09/18 02:49:22;;;;;;;10.23;8.77;;;;;;;;;;4997520;28;20180;-69
2023/09/18 02:51:49;;;;;;;11.60;8.87;;;;;;;;;;5014864;28;20234;-69
2023/09/18 02:54:15;;;;;;;14.13;8.47;;;;;;;;;;5014748;28;20176;-68
2023/09/18 02:56:41;;;;;;;16.60;9.17;;;;;;;;;;5014578;28;20569;-68
2023/09/18 02:59:08;;;;;;;15.30;8.73;;;;;;;;;;4996820;28;20645;-68
2023/09/18 03:01:34;;;;;;;9.57;8.10;;;;;;;;;;5014893;28;20180;-68
2023/09/18 03:04:01;;;;;;;13.33;8.90;;;;;;;;;;5014582;28;20621;-68
2023/09/18 03:06:27;;;;;;;12.77;8.47;;;;;;;;;;4996769;28;20217;-68
2023/09/18 03:08:53;;;;;;;9.13;7.40;;;;;;;;;;5014910;28;20642;-69
2023/09/18 03:11:19;;;;;;;15.60;8.47;;;;;;;;;;5015638;28;20176;-69
2023/09/18 03:13:46;;;;;;;12.03;8.10;;;;;;;;;;5014843;28;20536;-69
2023/09/18 03:16:12;;;;;;;13.23;7.10;;;;;;;;;;4996473;28;20184;-70
2023/09/18 03:18:38;;;;;;;12.17;7.50;;;;;;;;;;5014511;28;20638;-69
2023/09/18 03:21:04;;;;;;;12.57;6.93;;;;;;;;;;4996872;28;20194;-70
2023/09/18 03:23:30;;;;;;;13.20;7.27;;;;;;;;;;5014325;28;20184;-69
2023/09/18 03:25:56;;;;;;;10.63;6.67;;;;;;;;;;4996595;28;20677;-69
2023/09/18 03:28:22;;;;;;;14.43;6.87;;;;;;;;;;4997093;28;20196;-69
2023/09/18 03:30:48;;;;;;;8.30;6.00;;;;;;;;;;5015217;28;20183;-69
2023/09/18 03:33:14;;;;;;;11.00;6.67;;;;;;;;;;5013975;28;20182;-69
2023/09/18 03:35:50;;;;;;;12.47;6.50;;;;;;;;;;5014098;28;20283;-69
2023/09/18 03:38:16;;;;;;;14.97;6.97;;;;;;;;;;4996139;28;20214;-69
2023/09/18 03:40:43;;;;;;;9.33;6.93;;;;;;;;;;5014274;28;20583;-69
2023/09/18 03:43:09;;;;;;;7.50;6.10;;;;;;;;;;5013705;28;20183;-69
2023/09/18 03:45:35;;;;;;;10.83;6.20;;;;;;;;;;5013575;28;20617;-69
2023/09/18 03:48:01;;;;;;;10.23;6.13;;;;;;;;;;5014138;28;20294;-69
2023/09/18 03:50:27;;;;;;;11.27;6.50;;;;;;;;;;5013869;28;20262;-69
2023/09/18 03:52:53;;;;;;;16.23;6.67;;;;;;;;;;5013498;28;20211;-68
2023/09/18 03:55:19;;;;;;;15.80;7.00;;;;;;;;;;5013216;28;20180;-69
2023/09/18 03:57:48;;;;;;;11.03;7.40;;;;;;;;;;5013427;28;20203;-69
2023/09/18 04:00:14;;;;;;;10.87;6.93;;;;;;;;;;4995773;28;20186;-69
2023/09/18 04:02:40;;;;;;;10.23;6.93;;;;;;;;;;5013543;28;20172;-69
2023/09/18 04:05:07;;;;;;;15.50;7.00;;;;;;;;;;4995764;28;20214;-69
2023/09/18 04:07:33;;;;;;;12.10;6.57;;;;;;;;;;4995723;28;20195;-69
2023/09/18 04:09:59;;;;;;;11.43;6.80;;;;;;;;;;5014090;28;20191;-69
2023/09/18 04:12:25;;;;;;;14.27;6.63;;;;;;;;;;5013952;28;20634;-69
2023/09/18 04:14:51;;;;;;;13.37;6.50;;;;;;;;;;4996871;28;20188;-69
2023/09/18 04:17:17;;;;;;;20.77;6.83;;;;;;;;;;4996478;28;20274;-69
2023/09/18 04:19:44;;;;;;;11.83;6.63;;;;;;;;;;4996360;28;20214;-69
2023/09/18 04:22:10;;;;;;;9.27;6.07;;;;;;;;;;4995477;28;20263;-69
2023/09/18 04:24:36;;;;;;;12.23;6.70;;;;;;;;;;5013213;28;20188;-69
2023/09/18 04:27:02;;;;;;;13.03;7.33;;;;;;;;;;5013117;28;20286;-69
2023/09/18 04:29:28;;;;;;;12.03;6.33;;;;;;;;;;5012980;28;20175;-70
2023/09/18 04:31:54;;;;;;;12.63;6.90;;;;;;;;;;5013487;28;20665;-69
2023/09/18 04:34:21;;;;;;;14.33;7.50;;;;;;;;;;4995323;28;20199;-70
2023/09/18 04:36:47;;;;;;;13.90;7.30;;;;;;;;;;5013212;28;20196;-69
2023/09/18 04:39:14;;;;;;;15.30;7.50;;;;;;;;;;5012963;28;20198;-68
2023/09/18 04:41:39;;;;;;;12.43;8.80;;;;;;;;;;5013344;28;20215;-69
2023/09/18 04:44:07;;;;;;;17.83;7.97;;;;;;;;;;5013242;28;20176;-69
2023/09/18 04:46:34;;;;;;;21.00;7.47;;;;;;;;;;5012798;28;20235;-69
2023/09/18 04:49:00;;;;;;;18.07;8.07;;;;;;;;;;5012918;28;20215;-68
2023/09/18 04:51:26;;;;;;;13.53;6.70;;;;;;;;;;5013456;28;20533;-68
2023/09/18 04:53:52;;;;;;;12.03;6.70;;;;;;;;;;5012849;28;20187;-68
2023/09/18 04:56:20;;;;;;;12.30;6.90;;;;;;;;;;5013102;28;20184;-68
2023/09/18 04:58:46;;;;;;;11.20;6.97;;;;;;;;;;4995216;28;20522;-69
2023/09/18 05:01:12;;;;;;;13.13;6.63;;;;;;;;;;5013244;28;20247;-69
2023/09/18 05:03:38;;;;;;;9.80;5.57;;;;;;;;;;5013425;28;20574;-69
2023/09/18 05:06:04;;;;;;;8.57;5.93;;;;;;;;;;5013717;28;20273;-69
2023/09/18 05:08:31;;;;;;;12.47;6.73;;;;;;;;;;5015242;28;20573;-69
2023/09/18 05:10:57;;;;;;;10.27;6.33;;;;;;;;;;5016748;28;20176;-68
2023/09/18 05:13:23;;;;;;;7.90;6.33;;;;;;;;;;4998888;28;20653;-67
2023/09/18 05:15:49;;;;;;;9.43;6.27;;;;;;;;;;5017195;28;20267;-68
2023/09/18 05:18:16;;;;;;;17.33;7.23;;;;;;;;;;5016400;28;20219;-69
2023/09/18 05:20:42;;;;;;;13.17;7.23;;;;;;;;;;5016667;28;20532;-68
2023/09/18 05:23:08;;;;;;;10.43;7.10;;;;;;;;;;4998815;28;20573;-69
2023/09/18 05:25:37;;;;;;;11.47;7.10;;;;;;;;;;5016228;28;20207;-69
2023/09/18 05:28:05;;;;;;;11.40;6.07;;;;;;;;;;5016063;28;20188;-69
2023/09/18 05:30:34;;;;;;;15.87;6.53;;;;;;;;;;5016335;28;20268;-69
2023/09/18 05:33:07;;;;;;;9.73;6.47;;;;;;;;;;4998775;28;20180;-69
2023/09/18 05:35:40;;;;;;;10.20;6.03;;;;;;;;;;5016162;28;20243;-68
2023/09/18 05:38:06;;;;;;;10.00;6.10;;;;;;;;;;4998779;28;20207;-67
2023/09/18 05:40:32;;;;;;;11.20;6.53;;;;;;;;;;4998512;28;20187;-68
2023/09/18 05:42:58;;;;;;;12.33;5.80;;;;;;;;;;5017163;28;20660;-68
2023/09/18 05:45:26;;;;;;;12.80;5.77;;;;;;;;;;4998270;28;20208;-69
2023/09/18 05:47:53;;;;;;;14.20;6.50;;;;;;;;;;5015807;28;20192;-69
2023/09/18 05:50:19;;;;;;;12.03;7.33;;;;;;;;;;4998491;28;20191;-68
2023/09/18 05:52:46;;;;;;;10.97;6.63;;;;;;;;;;4998353;28;20180;-67
2023/09/18 05:55:12;;;;;;;15.00;7.80;;;;;;;;;;5016162;28;20187;-68
2023/09/18 05:57:38;;;;;;;14.07;6.83;;;;;;;;;;5016268;28;20712;-68
2023/09/18 06:00:05;;;;;;;10.20;6.33;;;;;;;;;;5016698;28;20580;-69
2023/09/18 06:02:31;;;;;;;13.07;6.20;;;;;;;;;;5016763;28;20184;-68
2023/09/18 06:04:59;;;;;;;13.07;6.30;;;;;;;;;;5016717;28;20547;-68
2023/09/18 06:07:26;;;;;;;10.97;5.87;;;;;;;;;;4998809;28;20220;-68
2023/09/18 06:09:52;;;;;;;11.97;6.03;;;;;;;;;;5016606;28;20634;-69
2023/09/18 06:12:18;;;;;;;14.23;6.37;;;;;;;;;;5016311;28;20199;-69
2023/09/18 06:14:44;;;;;;;14.60;6.10;;;;;;;;;;5016332;28;20551;-68
2023/09/18 06:17:11;;;;;;;13.60;5.97;;;;;;;;;;5015979;28;20823;-68
2023/09/18 06:19:37;;;;;;;11.50;5.50;;;;;;;;;;4998476;28;20184;-69
2023/09/18 06:22:03;;;;;;;11.27;5.60;;;;;;;;;;4998081;28;20184;-69
2023/09/18 06:24:29;;;;;;;12.33;5.30;;;;;;;;;;4999460;28;20188;-67
2023/09/18 06:26:55;;;;;;;11.90;5.40;;;;;;;;;;4999995;28;20208;-70
2023/09/18 06:29:21;;;;;;;11.20;6.20;;;;;;;;;;5015280;28;20176;-69
2023/09/18 06:31:47;;;;;;;10.83;5.57;;;;;;;;;;5014979;28;20653;-68
2023/09/18 06:34:13;;;;;;;8.97;5.50;;;;;;;;;;4997719;28;20172;-69
2023/09/18 06:36:40;;;;;;;9.70;5.37;;;;;;;;;;5015578;28;20646;-69
2023/09/18 06:39:07;;;;;;;12.37;5.03;;;;;;;;;;5014845;28;20551;-69
2023/09/18 06:41:33;;;;;;;11.67;4.70;;;;;;;;;;5015320;28;20179;-68
2023/09/18 06:44:02;;;;;;;7.90;4.43;;;;;;;;;;4997286;28;20176;-68
2023/09/18 06:46:28;;;;;;;10.07;4.43;;;;;;;;;;5015001;28;20232;-68
2023/09/18 06:48:56;;;;;;;8.30;4.33;;;;;;;;;;4997143;28;20168;-69
2023/09/18 06:51:22;;;;;;;8.43;4.50;;;;;;;;;;5014702;28;20194;-68
2023/09/18 06:53:47;;;;;;;9.23;4.53;;;;;;;;;;5014601;28;20172;-68
2023/09/18 06:56:13;;;;;;;8.67;4.10;;;;;;;;;;5014585;28;20180;-69
2023/09/18 06:58:39;;;;;;;8.73;4.37;;;;;;;;;;5014706;28;20179;-68
2023/09/18 07:01:06;;;;;;;9.83;4.53;;;;;;;;;;4997021;28;20562;-68
2023/09/18 07:03:34;;;;;;;8.30;4.20;;;;;;;;;;5014810;28;20175;-69
2023/09/18 07:06:00;;;;;;;10.07;3.87;;;;;;;;;;5014908;28;20581;-68
2023/09/18 07:08:26;;;;;;;7.93;4.00;;;;;;;;;;5014367;28;20661;-68
2023/09/18 07:10:52;;;;;;;5.60;3.47;;;;;;;;;;5014454;28;20254;-68
2023/09/18 07:13:18;;;;;;;11.07;4.17;;;;;;;;;;5014971;28;20175;-68
2023/09/18 07:15:44;;;;;;;6.70;3.80;;;;;;;;;;5014213;28;20213;-68
2023/09/18 07:18:14;;;;;;;9.70;4.43;;;;;;;;;;4996554;28;20660;-67
2023/09/18 07:20:40;;;;;;;8.57;3.70;;;;;;;;;;4996543;28;20180;-68
2023/09/18 07:23:06;;;;;;;10.83;4.00;;;;;;;;;;5014312;28;20176;-69
2023/09/18 07:25:32;;;;;;;7.93;3.47;;;;;;;;;;5014573;28;20282;-68
2023/09/18 07:27:58;;;;;;;4.77;3.10;;;;;;;;;;4996685;28;20192;-68
2023/09/18 07:30:26;;;;;;;6.13;3.40;;;;;;;;;;5013384;28;20180;-68
2023/09/18 07:32:52;;;;;;;7.30;3.70;;;;;;;;;;5013930;28;20168;-68
2023/09/18 07:35:19;;;;;;;6.17;3.53;;;;;;;;;;5013796;28;20168;-68
2023/09/18 07:37:46;;;;;;;7.63;3.27;;;;;;;;;;5014146;28;20214;-68
2023/09/18 07:40:12;;;;;;;6.13;3.23;;;;;;;;;;5014073;28;20164;-67
2023/09/18 07:42:38;;;;;;;5.83;3.07;;;;;;;;;;4996663;28;20267;-68
2023/09/18 07:45:04;;;;;;;6.73;3.00;;;;;;;;;;5013675;28;20593;-68
2023/09/18 07:47:30;;;;;;;4.73;2.73;;;;;;;;;;5014182;28;20216;-69
2023/09/18 07:49:57;;;;;;;9.37;3.03;;;;;;;;;;5013676;28;20164;-69
2023/09/18 07:52:23;;;;;;;4.83;2.87;;;;;;;;;;5013726;28;20223;-69
2023/09/18 07:54:49;;;;;;;7.37;2.93;;;;;;;;;;5013972;28;20176;-68
2023/09/18 07:57:16;;;;;;;5.10;2.87;;;;;;;;;;5013367;28;20196;-68
2023/09/18 07:59:42;;;;;;;5.20;2.57;;;;;;;;;;5013584;28;20176;-68
2023/09/18 08:02:09;;;;;;;6.50;2.63;;;;;;;;;;5013439;28;20172;-68
2023/09/18 08:04:35;;;;;;;4.93;2.67;;;;;;;;;;5013602;28;20198;-68
2023/09/18 08:07:01;;;;;;;5.33;2.80;;;;;;;;;;5013236;28;20266;-69
2023/09/18 08:09:30;;;;;;;6.33;2.40;;;;;;;;;;5013241;28;20180;-69
2023/09/18 08:11:56;;;;;;;4.80;2.20;;;;;;;;;;5013700;28;20186;-68
2023/09/18 08:14:22;;;;;;;3.77;2.40;;;;;;;;;;5013251;28;20202;-68
2023/09/18 08:16:48;;;;;;;4.80;2.27;;;;;;;;;;5013117;28;20622;-67
2023/09/18 08:19:18;;;;;;;6.47;2.13;;;;;;;;;;5013214;28;20168;-70
2023/09/18 08:21:44;;;;;;;3.90;2.17;;;;;;;;;;5013067;28;20556;-69
2023/09/18 08:24:10;;;;;;;4.03;2.30;;;;;;;;;;5013155;28;20180;-67
2023/09/18 08:26:36;;;;;;;5.00;2.20;;;;;;;;;;4995396;28;20759;-67
2023/09/18 08:29:02;;;;;;;4.07;2.50;;;;;;;;;;4995479;28;20180;-68
2023/09/18 08:31:31;;;;;;;9.00;2.30;;;;;;;;;;5013435;28;20600;-69
2023/09/18 08:33:57;;;;;;;4.27;2.60;;;;;;;;;;5013126;28;20218;-70
2023/09/18 08:36:23;;;;;;;2.57;1.83;;;;;;;;;;5012910;28;20255;-67
2023/09/18 08:38:49;;;;;;;6.27;2.40;;;;;;;;;;4995472;28;20183;-69
2023/09/18 08:41:19;;;;;;;6.03;2.10;;;;;;;;;;5013237;28;20199;-69
2023/09/18 08:43:46;;;;;;;9.07;2.07;;;;;;;;;;5015690;28;20175;-68
2023/09/18 08:46:13;;;;;;;4.17;2.17;;;;;;;;;;5016888;28;20203;-69
2023/09/18 08:48:39;;;;;;;3.43;2.07;;;;;;;;;;5017154;28;20233;-69
2023/09/18 08:51:06;;;;;;;4.23;2.27;;;;;;;;;;5016883;28;20629;-68
2023/09/18 08:53:33;;;;;;;6.67;2.60;;;;;;;;;;5016975;28;20186;-69
2023/09/18 08:56:01;;;;;;;4.00;2.27;;;;;;;;;;4999087;28;20218;-68
2023/09/18 08:58:28;;;;;;;5.13;2.17;;;;;;;;;;5016704;28;20261;-67
2023/09/18 09:00:54;;;;;;;4.03;2.47;;;;;;;;;;4998994;28;20290;-68
2023/09/18 09:03:20;;;;;;;5.83;2.00;;;;;;;;;;5016895;28;20662;-68
2023/09/18 09:05:46;;;;;;;7.00;2.00;;;;;;;;;;5016644;28;20211;-68
2023/09/18 09:08:12;;;;;;;6.53;2.10;;;;;;;;;;5017023;28;20195;-70
2023/09/18 09:10:38;;;;;;;4.43;2.13;;;;;;;;;;5017858;28;20176;-67
2023/09/18 09:13:05;;;;;;;4.37;2.27;;;;;;;;;;5017235;28;20180;-70
2023/09/18 09:15:49;;;;;;;3.57;2.10;;;;;;;;;;5017144;28;20649;-67
2023/09/18 09:18:15;;;;;;;4.80;2.10;;;;;;;;;;4999560;28;20245;-68
2023/09/18 09:20:41;;;;;;;5.27;2.00;;;;;;;;;;4999638;28;20274;-68
2023/09/18 09:23:10;;;;;;;3.33;2.00;;;;;;;;;;5016533;28;20258;-69
2023/09/18 09:25:36;;;;;;;4.33;2.00;;;;;;;;;;5016762;28;20226;-68
2023/09/18 09:28:04;;;;;;;4.07;2.10;;;;;;;;;;5016345;28;20208;-69
2023/09/18 09:30:31;;;;;;;5.47;2.23;;;;;;;;;;4999025;28;20219;-66
2023/09/18 09:32:58;;;;;;;4.17;1.90;;;;;;;;;;5016632;28;20238;-68
2023/09/18 09:35:29;;;;;;;4.33;2.07;;;;;;;;;;5016075;28;20682;-70
2023/09/18 09:38:00;;;;;;;5.93;2.47;;;;;;;;;;4998446;28;20226;-69
2023/09/18 09:40:27;;;;;;;3.37;1.90;;;;;;;;;;4998654;28;20192;-68
2023/09/18 09:42:57;;;;;;;3.00;2.10;;;;;;;;;;5016056;28;20176;-68
2023/09/18 09:45:23;;;;;;;3.13;2.00;;;;;;;;;;5016364;28;20160;-69
2023/09/18 09:47:54;;;;;;;4.40;2.23;;;;;;;;;;4998362;28;20582;-69
2023/09/18 09:50:21;;;;;;;5.10;2.13;;;;;;;;;;4998166;28;20175;-69
2023/09/18 09:52:48;;;;;;;2.77;2.27;;;;;;;;;;4998302;28;20195;-69
2023/09/18 09:55:22;;;;;;;4.40;2.07;;;;;;;;;;5015344;28;20191;-69
2023/09/18 09:57:49;;;;;;;4.80;2.20;;;;;;;;;;4998201;28;20200;-69
2023/09/18 10:00:33;;;;;;;6.07;2.23;;;;;;;;;;4998477;28;20184;-68
2023/09/18 10:03:02;;;;;;;3.37;2.27;;;;;;;;;;4999727;28;20183;-67
2023/09/18 10:05:33;;;;;;;4.03;2.10;;;;;;;;;;5018551;28;20179;-67
2023/09/18 10:08:00;;;;;;;3.10;1.90;;;;;;;;;;4997847;28;20196;-68
2023/09/18 10:10:31;;;;;;;6.47;2.50;;;;;;;;;;5016153;28;20685;-70
2023/09/18 10:13:00;;;;;;;5.77;2.33;;;;;;;;;;5015697;28;20168;-69
2023/09/18 10:15:27;;;;;;;8.37;2.07;;;;;;;;;;5015586;28;20174;-69
2023/09/18 10:17:56;;;;;;;5.53;2.30;;;;;;;;;;5015671;28;20214;-69
2023/09/18 10:20:22;;;;;;;5.00;2.40;;;;;;;;;;4999618;28;20187;-69
2023/09/18 10:22:54;;;;;;;4.53;2.03;;;;;;;;;;5018089;28;20224;-68
2023/09/18 10:25:24;;;;;;;8.23;2.67;;;;;;;;;;4999189;28;20233;-68
2023/09/18 10:28:01;;;;;;;4.53;2.27;;;;;;;;;;4998433;28;20207;-69
2023/09/18 10:30:28;;;;;;;5.07;2.20;;;;;;;;;;5015613;28;20694;-69
2023/09/18 10:32:54;;;;;;;7.13;2.50;;;;;;;;;;5015306;28;20333;-69
2023/09/18 10:35:20;;;;;;;3.37;2.27;;;;;;;;;;5015088;28;20641;-69
2023/09/18 10:37:48;;;;;;;5.13;2.40;;;;;;;;;;4997629;28;20214;-69
2023/09/18 10:40:14;;;;;;;6.70;2.50;;;;;;;;;;5015035;28;20204;-69
2023/09/18 10:42:41;;;;;;;4.53;2.57;;;;;;;;;;5015067;28;20179;-69
2023/09/18 10:45:10;;;;;;;6.10;2.50;;;;;;;;;;5014732;28;20182;-69
2023/09/18 10:47:36;;;;;;;2.57;2.00;;;;;;;;;;5014758;28;20689;-68
2023/09/18 10:50:04;;;;;;;5.47;2.43;;;;;;;;;;5014768;28;20223;-68
2023/09/18 10:52:30;;;;;;;3.13;2.30;;;;;;;;;;5014729;28;20642;-70
2023/09/18 10:54:56;;;;;;;6.07;2.63;;;;;;;;;;4997198;28;20184;-69
2023/09/18 10:57:22;;;;;;;5.73;2.50;;;;;;;;;;4997036;28;20725;-69
2023/09/18 10:59:48;;;;;;;4.70;2.50;;;;;;;;;;5014611;28;20262;-68
2023/09/18 11:02:16;;;;;;;5.17;2.80;;;;;;;;;;5014833;28;20251;-69
2023/09/18 11:04:42;;;;;;;3.40;2.47;;;;;;;;;;5014177;28;20179;-68
2023/09/18 11:07:09;;;;;;;3.27;2.50;;;;;;;;;;5013946;28;20211;-68
2023/09/18 11:09:45;;;;;;;3.83;2.40;;;;;;;;;;5014923;28;20179;-68
2023/09/18 11:12:11;;;;;;;3.33;2.53;;;;;;;;;;5014905;28;20229;-69
2023/09/18 11:14:50;;;;;;;3.87;2.60;;;;;;;;;;5014387;28;20176;-68
2023/09/18 11:17:33;;;;;;;4.10;2.60;;;;;;;;;;5014275;28;20294;-68
2023/09/18 11:20:05;;;;;;;2.73;2.50;;;;;;;;;;5014230;28;20675;-67
2023/09/18 11:22:31;;;;;;;6.33;2.37;;;;;;;;;;5014076;28;20184;-68
2023/09/18 11:25:20;;;;;;;7.37;2.60;;;;;;;;;;4996640;28;20238;-68
2023/09/18 11:27:55;;;;;;;4.87;2.67;;;;;;;;;;5013951;28;20203;-68
2023/09/18 11:30:22;;;;;;;5.13;2.97;;;;;;;;;;5013955;28;20175;-68
2023/09/18 11:32:48;;;;;;;3.97;2.67;;;;;;;;;;5013992;28;20552;-67
2023/09/18 11:35:17;;;;;;;5.20;2.40;;;;;;;;;;5014009;28;20180;-68
2023/09/18 11:37:43;;;;;;;4.93;2.50;;;;;;;;;;5034825;22;20187;-69
2023/09/18 11:40:33;;;;;;;2.70;2.50;;;;;;;;;;5016822;28;20302;-69
2023/09/18 11:43:35;;;;;;;5.20;2.43;;;;;;;;;;5017423;28;20244;-71
2023/09/18 11:46:05;;;;;;;4.07;2.43;;;;;;;;;;5020958;28;20225;-67
2023/09/18 11:48:34;;;;;;;4.57;2.50;;;;;;;;;;5034069;28;20665;-69
2023/09/18 11:51:04;;;;;;;3.93;2.43;;;;;;;;;;5034738;28;20175;-68
2023/09/18 11:53:34;;;;;;;4.17;2.30;;;;;;;;;;5033986;28;20167;-69
2023/09/18 11:56:00;;;;;;;5.37;2.50;;;;;;;;;;5016015;28;20273;-70
2023/09/18 11:58:26;;;;;;;7.17;2.87;;;;;;;;;;5015828;28;20203;-71
2023/09/18 12:00:54;;;;;;;5.90;2.90;;;;;;;;;;5015742;28;20273;-68
2023/09/18 12:03:27;;;;;;;5.10;2.60;;;;;;;;;;5034842;28;20187;-68
2023/09/18 12:05:57;;;;;;;3.17;2.17;;;;;;;;;;5017367;28;20206;-68
2023/09/18 12:08:26;;;;;;;5.23;2.80;;;;;;;;;;5034520;28;20195;-68
2023/09/18 12:10:52;;;;;;;2.77;2.50;;;;;;;;;;5016594;28;20288;-70
2023/09/18 12:13:18;;;;;;;3.03;2.37;;;;;;;;;;5033604;28;20175;-69
2023/09/18 12:15:44;;;;;;;5.77;2.17;;;;;;;;;;5034703;28;20241;-70
2023/09/18 12:18:14;;;;;;;6.17;2.37;;;;;;;;;;5033361;28;20195;-70
2023/09/18 12:20:49;;;;;;;3.77;2.50;;;;;;;;;;5033237;28;20245;-69
2023/09/18 12:23:16;;;;;;;4.37;2.50;;;;;;;;;;5015479;28;20278;-69
2023/09/18 12:25:45;;;;;;;5.03;2.70;;;;;;;;;;5033005;28;20195;-69
2023/09/18 12:28:11;;;;;;;3.67;2.50;;;;;;;;;;5032902;28;20194;-68
2023/09/18 12:30:37;;;;;;;3.90;2.30;;;;;;;;;;5015425;28;20182;-70
2023/09/18 12:33:03;;;;;;;3.73;2.37;;;;;;;;;;5033150;28;20183;-70
2023/09/18 12:35:30;;;;;;;4.83;2.33;;;;;;;;;;5015308;28;20183;-70
2023/09/18 12:37:56;;;;;;;4.43;2.13;;;;;;;;;;5032865;28;20191;-69
2023/09/18 12:40:35;;;;;;;3.53;2.67;;;;;;;;;;5033358;28;20159;-69
2023/09/18 12:43:02;;;;;;;4.63;2.47;;;;;;;;;;5015341;28;20607;-70
2023/09/18 12:45:29;;;;;;;6.17;2.47;;;;;;;;;;5032925;28;20250;-70
2023/09/18 12:47:56;;;;;;;3.17;2.47;;;;;;;;;;5033147;28;20318;-70
2023/09/18 12:50:22;;;;;;;5.93;2.33;;;;;;;;;;5032879;28;20301;-70
2023/09/18 12:52:48;;;;;;;3.43;2.23;;;;;;;;;;5015155;28;20206;-69
2023/09/18 12:55:24;;;;;;;4.27;2.50;;;;;;;;;;5014871;28;20645;-70
2023/09/18 12:57:50;;;;;;;4.03;2.20;;;;;;;;;;5014872;28;20241;-69
2023/09/18 13:00:19;;;;;;;4.90;2.43;;;;;;;;;;5032759;28;20203;-70
2023/09/18 13:02:46;;;;;;;4.10;2.53;;;;;;;;;;5032727;28;20172;-70
2023/09/18 13:05:14;;;;;;;4.27;2.53;;;;;;;;;;5014845;28;20329;-70
2023/09/18 13:07:47;;;;;;;5.67;2.30;;;;;;;;;;5032588;28;20213;-69
2023/09/18 13:10:14;;;;;;;3.07;2.20;;;;;;;;;;5033054;28;20172;-70
2023/09/18 13:12:40;;;;;;;7.13;2.30;;;;;;;;;;5033263;28;20171;-70
2023/09/18 13:15:13;;;;;;;6.23;2.33;;;;;;;;;;5032676;28;20703;-70
2023/09/18 13:17:41;;;;;;;5.60;2.60;;;;;;;;;;5033449;28;20243;-69
2023/09/18 13:20:11;;;;;;;3.87;2.33;;;;;;;;;;5032845;28;20190;-69
2023/09/18 13:22:37;;;;;;;3.10;2.50;;;;;;;;;;5032621;28;20630;-69
2023/09/18 13:25:03;;;;;;;4.07;2.50;;;;;;;;;;5032562;28;20189;-69
2023/09/18 13:27:29;;;;;;;4.10;2.90;;;;;;;;;;5014740;28;20203;-70
2023/09/18 13:29:55;;;;;;;5.07;2.40;;;;;;;;;;5017126;28;20179;-70
2023/09/18 13:32:22;;;;;;;3.97;2.10;;;;;;;;;;5036301;28;20249;-69
2023/09/18 13:34:48;;;;;;;3.77;2.30;;;;;;;;;;5018295;28;20178;-69
2023/09/18 13:37:17;;;;;;;4.00;2.90;;;;;;;;;;5036082;28;20191;-69
2023/09/18 13:39:43;;;;;;;7.20;3.07;;;;;;;;;;5036093;28;20215;-69
2023/09/18 13:42:09;;;;;;;4.07;2.07;;;;;;;;;;5018174;28;20190;-69
2023/09/18 13:44:36;;;;;;;2.77;1.93;;;;;;;;;;5035764;28;20559;-69
2023/09/18 13:47:03;;;;;;;4.93;2.20;;;;;;;;;;5017990;28;20203;-69
2023/09/18 13:49:29;;;;;;;3.83;2.07;;;;;;;;;;5035904;28;20191;-69
2023/09/18 13:51:56;;;;;;;3.63;2.30;;;;;;;;;;5017999;28;20233;-69
2023/09/18 13:54:22;;;;;;;3.93;2.43;;;;;;;;;;5018075;28;20649;-69
2023/09/18 13:56:48;;;;;;;4.00;2.17;;;;;;;;;;5018045;28;20190;-69
2023/09/18 13:59:14;;;;;;;3.33;2.20;;;;;;;;;;5017932;28;20205;-69
2023/09/18 14:01:40;;;;;;;3.10;2.00;;;;;;;;;;5018111;28;20190;-69
2023/09/18 14:04:06;;;;;;;4.17;2.07;;;;;;;;;;5017930;28;20187;-70
2023/09/18 14:06:33;;;;;;;3.17;2.10;;;;;;;;;;5036003;28;20202;-69
2023/09/18 14:08:59;;;;;;;4.00;2.53;;;;;;;;;;5017975;28;20203;-69
2023/09/18 14:11:25;;;;;;;4.03;2.40;;;;;;;;;;5035627;28;20182;-69
2023/09/18 14:13:51;;;;;;;2.63;2.03;;;;;;;;;;5017968;28;20186;-69
2023/09/18 14:16:17;;;;;;;6.50;2.17;;;;;;;;;;5035674;28;20205;-69
2023/09/18 14:18:43;;;;;;;4.57;2.30;;;;;;;;;;5035343;28;20206;-69
2023/09/18 14:21:09;;;;;;;2.40;2.03;;;;;;;;;;5036136;28;20176;-69
2023/09/18 14:23:36;;;;;;;4.10;2.33;;;;;;;;;;5019023;28;20187;-69
2023/09/18 14:26:02;;;;;;;3.33;2.23;;;;;;;;;;5036266;28;20672;-69
2023/09/18 14:28:28;;;;;;;4.57;2.50;;;;;;;;;;5036289;28;20214;-69
2023/09/18 14:30:54;;;;;;;4.87;2.20;;;;;;;;;;5018208;28;20225;-69
2023/09/18 14:33:19;;;;;;;3.67;2.43;;;;;;;;;;5035387;28;20186;-69
2023/09/18 14:35:45;;;;;;;3.23;2.20;;;;;;;;;;5035860;28;20582;-69